Time;durP1;ratioP1;P1;durP2;ratioP2;P2;SDS_P1;SDS_P2;PMS_P1;PMS_P2;Temp;Humidity;BMP_temperature;BMP_pressure;BME280_temperature;BME280_humidity;BME280_pressure;Samples;Min_cycle;Max_cycle;Signal;HPM_P1;HPM_P2
2022/12/29 00:57:13;;;;;;;;;;;;;;;;;;;;;
2022/12/29 01:00:47;;;;;;;15.05;6.80;;;;;;;-5.40;78.33;99730.34;4802898;29;20096;-81
2022/12/29 01:03:22;;;;;;;13.90;6.50;;;;;;;-4.75;78.66;99789.69;4743316;29;20062;-81
2022/12/29 01:05:53;;;;;;;13.07;6.88;;;;;;;-4.47;78.97;99781.38;4777320;29;20044;-81
2022/12/29 01:08:29;;;;;;;13.32;7.13;;;;;;;-4.23;78.23;99764.38;4774426;29;20051;-81
2022/12/29 01:11:00;;;;;;;12.23;6.43;;;;;;;-4.12;77.62;99764.75;4764430;29;20061;-81
2022/12/29 01:13:31;;;;;;;16.58;7.70;;;;;;;-3.82;76.52;99781.91;4766474;29;20113;-80
2022/12/29 01:16:03;;;;;;;14.98;7.80;;;;;;;-4.14;74.83;99776.59;4801737;28;20070;-81
2022/12/29 01:18:38;;;;;;;16.95;8.18;;;;;;;-4.20;74.67;99768.72;4827151;28;20078;-82
2022/12/29 01:21:08;;;;;;;15.20;7.60;;;;;;;-4.38;74.34;99751.09;4848775;28;20046;-82
2022/12/29 01:23:45;;;;;;;16.67;7.25;;;;;;;-4.29;74.59;99770.94;4878700;28;20089;-82
2022/12/29 01:26:20;;;;;;;13.35;7.28;;;;;;;-4.31;74.16;99747.09;4888697;28;20109;-83
2022/12/29 01:28:50;;;;;;;13.70;6.63;;;;;;;-3.94;74.04;99770.50;4872949;28;20066;-82
2022/12/29 01:31:26;;;;;;;13.07;6.07;;;;;;;-3.54;73.54;99761.59;4896153;28;20057;-82
2022/12/29 01:33:56;;;;;;;12.93;5.95;;;;;;;-3.39;73.08;99752.69;4900419;28;20322;-83
2022/12/29 01:36:27;;;;;;;12.68;5.90;;;;;;;-3.38;72.34;99762.06;4891395;28;20140;-82
2022/12/29 01:39:02;;;;;;;16.40;5.53;;;;;;;-3.80;72.52;99742.00;4899830;28;20040;-82
2022/12/29 01:41:33;;;;;;;11.13;5.43;;;;;;;-3.96;73.07;99746.59;4892846;28;20091;-81
2022/12/29 01:44:03;;;;;;;13.48;7.13;;;;;;;-4.07;73.88;99752.16;4907994;28;20067;-81
2022/12/29 01:46:38;;;;;;;12.82;5.40;;;;;;;-4.75;74.01;99677.53;4906723;28;20045;-81
2022/12/29 01:49:16;;;;;;;10.60;6.35;;;;;;;-4.53;74.49;99756.53;4896974;28;21372;-81
2022/12/29 01:51:52;;;;;;;10.30;5.03;;;;;;;-4.79;75.59;99712.25;4905662;28;20123;-82
2022/12/29 01:54:28;;;;;;;12.75;6.13;;;;;;;-4.82;75.97;99728.31;4893374;28;20048;-82
2022/12/29 01:57:02;;;;;;;11.45;4.25;;;;;;;-4.70;76.69;99734.66;4901900;28;20060;-82
2022/12/29 01:59:41;;;;;;;8.93;4.68;;;;;;;-4.86;77.72;99700.97;4895205;28;20132;-82
2022/12/29 02:02:14;;;;;;;11.60;4.38;;;;;;;-4.69;78.28;99721.09;4893317;28;21214;-82
2022/12/29 02:04:47;;;;;;;10.68;4.88;;;;;;;-4.88;78.36;99682.19;4903240;28;20094;-82
2022/12/29 03:16:04;;;;;;;7.68;2.80;;;;;;;-6.13;85.38;99641.00;4736190;29;20056;-80
2022/12/29 03:24:27;;;;;;;9.07;3.05;;;;;;;-5.98;83.78;99662.78;4742782;29;20329;-80
2022/12/29 03:27:00;;;;;;;7.95;3.00;;;;;;;-6.00;83.31;99659.31;4760756;29;20064;-80
2022/12/29 03:29:41;;;;;;;7.40;2.85;;;;;;;-5.95;83.06;99673.06;4852592;28;20113;-80
2022/12/29 03:32:14;;;;;;;9.07;2.50;;;;;;;-5.87;82.84;99672.53;4899604;28;20314;-80
2022/12/29 03:34:47;;;;;;;7.03;3.00;;;;;;;-5.82;82.62;99670.16;4906944;28;20112;-80
2022/12/29 03:37:22;;;;;;;4.55;2.35;;;;;;;-5.93;81.94;99663.81;4910696;28;20060;-80
2022/12/29 03:39:56;;;;;;;5.13;2.92;;;;;;;-6.01;82.19;99650.81;4901161;28;20053;-80
2022/12/29 03:45:21;;;;;;;6.00;2.40;;;;;;;-5.93;83.18;99671.44;4912546;28;20237;-80
2022/12/29 03:47:52;;;;;;;7.57;2.38;;;;;;;-5.95;83.80;99647.63;4905324;28;20045;-80
2022/12/29 03:50:23;;;;;;;5.22;2.20;;;;;;;-6.09;83.81;99640.34;4913202;28;20044;-80
2022/12/29 03:52:54;;;;;;;6.20;2.05;;;;;;;-6.09;84.96;99665.78;4928464;28;20135;-80
2022/12/29 03:55:27;;;;;;;3.35;2.08;;;;;;;-6.06;85.76;99665.03;4938405;28;20083;-79
2022/12/29 03:57:58;;;;;;;3.83;1.98;;;;;;;-6.14;85.72;99651.09;4941950;28;20243;-79
2022/12/29 04:00:30;;;;;;;4.25;2.20;;;;;;;-6.02;85.88;99655.81;4936646;28;20059;-80
2022/12/29 04:03:01;;;;;;;5.03;2.42;;;;;;;-5.87;86.57;99656.41;4919580;28;20174;-79
2022/12/29 04:08:19;;;;;;;5.30;2.33;;;;;;;-5.90;85.01;99656.28;4918133;28;20044;-79
2022/12/29 04:10:52;;;;;;;6.47;2.28;;;;;;;-5.98;84.38;99647.53;4947360;28;20111;-77
2022/12/29 04:13:23;;;;;;;5.05;2.10;;;;;;;-5.91;84.53;99650.34;4930577;28;20040;-79
2022/12/29 04:15:57;;;;;;;8.68;2.75;;;;;;;-6.05;84.49;99645.53;4928630;28;20103;-79
2022/12/29 04:18:28;;;;;;;5.70;2.35;;;;;;;-5.97;84.54;99654.34;4927945;28;20041;-79
2022/12/29 04:21:03;;;;;;;5.30;2.03;;;;;;;-6.11;84.74;99641.94;4939722;28;20040;-79
2022/12/29 04:23:36;;;;;;;6.15;2.47;;;;;;;-6.49;84.40;99581.03;4923969;28;20351;-79
2022/12/29 04:26:08;;;;;;;4.63;2.30;;;;;;;-6.02;85.24;99648.19;4938604;28;20047;-79
2022/12/29 04:28:39;;;;;;;4.95;2.20;;;;;;;-6.02;84.61;99655.81;4932747;28;20116;-79
2022/12/29 04:31:12;;;;;;;4.57;1.92;;;;;;;-6.09;84.43;99639.44;4947046;28;20062;-79
2022/12/29 04:33:43;;;;;;;8.88;2.85;;;;;;;-6.07;84.67;99658.19;4928542;28;20086;-79
2022/12/29 04:36:13;;;;;;;4.07;2.10;;;;;;;-6.08;84.77;99657.31;4939117;28;20283;-79
2022/12/29 04:38:46;;;;;;;4.75;2.20;;;;;;;-6.10;85.21;99642.81;4933524;28;20169;-79
2022/12/29 04:41:24;;;;;;;3.83;2.13;;;;;;;-5.99;85.12;99640.69;4920500;28;20045;-79
2022/12/29 04:43:55;;;;;;;4.50;2.10;;;;;;;-5.96;84.77;99651.00;4936111;28;20047;-78
2022/12/29 04:46:47;;;;;;;2.85;1.88;;;;;;;-6.13;84.81;99648.63;4897806;28;20050;-79
2022/12/29 04:49:18;;;;;;;2.97;1.83;;;;;;;-6.31;85.30;99658.06;4923538;28;20056;-79
2022/12/29 04:51:49;;;;;;;5.25;2.97;;;;;;;-6.45;86.47;99626.13;4926819;28;20087;-79
2022/12/29 04:54:20;;;;;;;4.32;2.45;;;;;;;-6.45;87.32;99649.00;4927687;28;20079;-79
2022/12/29 04:56:50;;;;;;;3.97;2.05;;;;;;;-6.48;88.06;99659.91;4928933;28;20064;-79
2022/12/29 04:59:21;;;;;;;5.15;2.10;;;;;;;-6.53;87.70;99662.25;4943438;28;20418;-79
2022/12/29 05:01:54;;;;;;;5.15;2.30;;;;;;;-6.53;88.23;99666.47;4937733;28;20143;-78
2022/12/29 05:04:25;;;;;;;5.18;2.33;;;;;;;-6.60;88.31;99659.41;4930420;28;20098;-78
2022/12/29 05:06:55;;;;;;;2.80;1.90;;;;;;;-6.68;88.73;99656.53;4927349;28;20367;-78
2022/12/29 05:09:26;;;;;;;5.10;2.25;;;;;;;-6.70;89.03;99665.75;4920944;28;20346;-78
2022/12/29 05:11:57;;;;;;;5.00;2.35;;;;;;;-6.65;89.53;99676.97;4939795;28;20050;-78
2022/12/29 05:14:30;;;;;;;2.75;1.73;;;;;;;-6.63;89.18;99670.28;4938854;28;20093;-78
2022/12/29 05:17:03;;;;;;;2.40;1.58;;;;;;;-6.55;89.10;99678.25;4920460;28;20049;-78
2022/12/29 05:19:34;;;;;;;3.63;2.42;;;;;;;-6.45;89.27;99690.53;4919407;28;20443;-78
2022/12/29 05:22:05;;;;;;;7.22;2.08;;;;;;;-6.53;89.23;99687.66;4937744;28;20055;-78
2022/12/29 05:27:23;;;;;;;4.10;2.42;;;;;;;-6.28;88.42;99703.09;4914305;28;20050;-78
2022/12/29 05:29:55;;;;;;;3.30;2.63;;;;;;;-6.25;88.56;99704.06;4932186;28;20072;-79
2022/12/29 05:32:30;;;;;;;4.70;2.05;;;;;;;-6.32;88.80;99708.03;4929929;28;20082;-78
2022/12/29 05:35:01;;;;;;;3.90;2.10;;;;;;;-6.34;88.58;99713.84;4927731;28;20049;-78
2022/12/29 05:37:32;;;;;;;2.42;2.03;;;;;;;-6.39;88.62;99710.25;4924830;28;20354;-79
2022/12/29 05:40:03;;;;;;;6.20;2.55;;;;;;;-6.35;88.94;99717.22;4929366;28;20061;-78
2022/12/29 05:42:33;;;;;;;5.07;2.35;;;;;;;-6.62;89.13;99691.50;4931213;28;20217;-79
2022/12/29 05:45:06;;;;;;;2.78;1.98;;;;;;;-6.57;89.97;99726.44;4938061;28;20048;-79
2022/12/29 05:47:39;;;;;;;7.53;2.22;;;;;;;-6.68;90.43;99727.69;4935051;28;20043;-78
2022/12/29 05:50:10;;;;;;;3.78;2.15;;;;;;;-6.83;91.36;99722.78;4921490;28;20106;-79
2022/12/29 05:52:42;;;;;;;4.13;2.55;;;;;;;-6.78;91.57;99728.06;4925419;28;20045;-79
2022/12/29 05:55:16;;;;;;;3.72;2.17;;;;;;;-6.82;92.03;99736.34;4929046;28;20417;-78
2022/12/29 05:57:47;;;;;;;7.32;2.25;;;;;;;-6.86;91.94;99742.09;4933023;28;20053;-78
2022/12/29 06:00:18;;;;;;;5.10;2.28;;;;;;;-6.89;92.80;99742.81;4925194;28;20052;-77
2022/12/29 06:02:50;;;;;;;3.97;2.40;;;;;;;-6.91;92.95;99748.63;4931623;28;20048;-78
2022/12/29 06:05:21;;;;;;;7.30;2.40;;;;;;;-6.97;92.75;99749.25;4927433;28;20058;-78
2022/12/29 06:07:52;;;;;;;2.72;1.90;;;;;;;-7.07;93.09;99758.09;4932545;28;20419;-79
2022/12/29 06:10:23;;;;;;;4.53;2.10;;;;;;;-7.31;93.93;99706.19;4923552;28;20065;-79
2022/12/29 06:12:53;;;;;;;3.42;1.88;;;;;;;-7.24;94.55;99764.06;4941015;28;20071;-78
2022/12/29 06:15:24;;;;;;;5.68;2.65;;;;;;;-7.25;95.29;99757.28;4937456;28;20218;-78
2022/12/29 06:20:49;;;;;;;6.97;2.53;;;;;;;-7.30;95.21;99766.34;4928632;28;20048;-78
2022/12/29 06:23:19;;;;;;;4.20;2.13;;;;;;;-7.32;95.21;99770.47;4930036;28;20052;-78
2022/12/29 06:25:53;;;;;;;2.03;1.75;;;;;;;-7.30;95.21;99784.09;4934631;28;20160;-79
2022/12/29 06:28:24;;;;;;;8.27;3.10;;;;;;;-7.29;95.57;99790.91;4927097;28;20060;-78
2022/12/29 06:30:55;;;;;;;10.32;3.08;;;;;;;-7.31;95.44;99788.31;4946583;28;20048;-78
2022/12/29 06:33:30;;;;;;;7.15;2.28;;;;;;;-7.29;95.52;99790.91;4925870;28;20036;-78
2022/12/29 06:36:00;;;;;;;10.10;2.58;;;;;;;-7.26;95.39;99806.28;4919489;28;20210;-79
2022/12/29 06:38:31;;;;;;;8.07;2.38;;;;;;;-7.33;95.13;99801.75;4925576;28;21581;-80
2022/12/29 06:41:04;;;;;;;4.40;2.35;;;;;;;-7.32;95.30;99806.88;4916091;28;20113;-80
2022/12/29 06:43:37;;;;;;;6.50;2.42;;;;;;;-7.33;95.22;99814.44;4938565;28;20059;-80
2022/12/29 06:46:08;;;;;;;5.75;2.40;;;;;;;-7.37;94.71;99826.94;4927568;28;20086;-79
2022/12/29 06:48:41;;;;;;;6.50;2.40;;;;;;;-7.44;95.16;99812.25;4929148;28;20259;-79
2022/12/29 06:51:14;;;;;;;8.43;2.47;;;;;;;-7.39;95.12;99815.88;4914044;28;20056;-80
2022/12/29 06:53:46;;;;;;;5.80;2.78;;;;;;;-7.55;95.02;99777.88;4924753;28;20063;-81
2022/12/29 06:56:16;;;;;;;4.85;2.80;;;;;;;-7.30;95.20;99824.72;4917411;28;20048;-79
2022/12/29 06:58:47;;;;;;;5.90;2.42;;;;;;;-7.22;95.20;99831.03;4931657;28;20353;-81
2022/12/29 07:01:35;;;;;;;7.07;2.85;;;;;;;-7.21;95.07;99840.41;4933514;28;20047;-79
2022/12/29 07:04:10;;;;;;;4.68;2.47;;;;;;;-7.22;95.12;99846.25;4914589;28;20041;-80
2022/12/29 07:09:34;;;;;;;4.78;2.28;;;;;;;-7.40;94.16;99842.03;4903710;28;20102;-82
2022/12/29 07:12:10;;;;;;;5.57;2.83;;;;;;;-7.29;94.32;99867.06;4924634;28;20477;-80
2022/12/29 07:14:45;;;;;;;7.78;2.47;;;;;;;-8.17;94.28;99742.72;4923525;28;20054;-84
2022/12/29 07:17:33;;;;;;;12.60;3.42;;;;;;;-7.29;94.35;99882.28;4940127;28;20061;-83
2022/12/29 07:20:13;;;;;;;13.35;2.65;;;;;;;-7.30;94.09;99875.50;4931123;28;20036;-84
2022/12/29 07:22:44;;;;;;;5.13;2.80;;;;;;;-7.37;93.68;99875.19;4908887;28;20048;-84
2022/12/29 07:25:15;;;;;;;4.70;2.17;;;;;;;-7.45;93.26;99861.25;4934885;28;20054;-82
2022/12/29 07:27:46;;;;;;;6.97;2.45;;;;;;;-7.36;92.98;99891.31;4935079;28;20066;-79
2022/12/29 07:30:17;;;;;;;5.97;3.10;;;;;;;-7.37;93.22;99880.25;4924848;28;20050;-80
2022/12/29 07:32:48;;;;;;;12.75;2.85;;;;;;;-7.37;93.02;99887.88;4921763;28;20040;-79
2022/12/29 07:35:20;;;;;;;10.05;3.15;;;;;;;-7.34;92.92;99893.91;4921984;28;20086;-84
2022/12/29 07:37:51;;;;;;;5.57;2.33;;;;;;;-7.39;92.70;99892.03;4926984;28;20192;-83
2022/12/29 07:40:22;;;;;;;6.43;2.47;;;;;;;-7.41;92.84;99901.22;4931418;28;20048;-81
2022/12/29 07:42:53;;;;;;;8.05;2.90;;;;;;;-7.39;92.84;99902.19;4937538;28;20052;-80
2022/12/29 07:45:23;;;;;;;6.82;2.90;;;;;;;-7.40;92.91;99902.09;4929366;28;20040;-82
2022/12/29 07:47:54;;;;;;;10.38;2.95;;;;;;;-7.44;92.70;99903.63;4928902;28;20337;-82
2022/12/29 07:50:27;;;;;;;4.30;2.60;;;;;;;-7.46;93.18;99904.31;4927196;28;20111;-82
2022/12/29 07:52:57;;;;;;;5.45;2.38;;;;;;;-7.51;93.16;99901.56;4929796;28;20111;-81
2022/12/29 07:55:30;;;;;;;6.40;2.85;;;;;;;-8.00;93.27;99833.16;4927519;28;20100;-82
2022/12/29 07:58:00;;;;;;;5.85;2.72;;;;;;;-7.41;93.10;99919.00;4934805;28;20437;-81
2022/12/29 08:03:28;;;;;;;6.80;2.40;;;;;;;-7.82;93.35;99849.28;4936300;28;20068;-81
2022/12/29 08:06:01;;;;;;;9.75;3.17;;;;;;;-7.38;93.92;99934.38;4928174;28;20064;-82
2022/12/29 08:08:31;;;;;;;4.30;2.30;;;;;;;-7.39;94.08;99925.03;4927039;28;20073;-81
2022/12/29 08:11:02;;;;;;;9.60;3.78;;;;;;;-7.34;94.44;99929.44;4940677;28;20120;-82
2022/12/29 08:13:36;;;;;;;9.18;4.50;;;;;;;-7.46;94.85;99917.91;4934830;28;20111;-84
2022/12/29 08:16:10;;;;;;;16.02;4.82;;;;;;;-7.89;94.70;99852.31;4926135;28;20064;-82
2022/12/29 08:18:41;;;;;;;8.82;4.15;;;;;;;-7.30;94.79;99942.34;4929688;28;20108;-81
2022/12/29 08:24:53;;;;;;;;;;;;;;;-7.29;96.04;99951.69;4759142;29;20054;-81
2022/12/29 08:27:25;;;;;;;13.43;4.97;;;;;;;-7.32;96.12;99949.03;4769769;28;19949;-80
2022/12/29 08:29:57;;;;;;;8.88;2.92;;;;;;;-7.31;96.30;99955.84;4830744;28;20066;-80
2022/12/29 08:32:29;;;;;;;4.28;2.17;;;;;;;-7.56;95.19;99937.63;4859574;28;20071;-80
2022/12/29 08:35:02;;;;;;;4.47;3.03;;;;;;;-7.48;94.81;99972.78;4857111;28;20068;-78
2022/12/29 08:37:35;;;;;;;8.00;3.58;;;;;;;-7.60;95.19;99977.22;4839380;28;20054;-77
2022/12/29 08:40:08;;;;;;;7.03;2.90;;;;;;;-7.63;94.73;99988.09;4851078;28;20050;-79
2022/12/29 08:45:29;;;;;;;6.85;3.33;;;;;;;-7.81;94.44;99998.16;4844753;28;20494;-79
2022/12/29 08:48:00;;;;;;;4.45;3.00;;;;;;;-7.75;94.54;100017.03;4854648;28;20050;-79
2022/12/29 08:51:22;;;;;;;3.70;2.60;;;;;;;-7.77;93.92;100013.53;4841915;28;20087;-79
2022/12/29 08:53:54;;;;;;;2.78;1.98;;;;;;;-7.89;92.34;100013.75;4851630;28;20037;-79
2022/12/29 08:56:26;;;;;;;6.00;2.55;;;;;;;-7.97;92.16;100008.25;4849806;28;20141;-80
2022/12/29 08:59:00;;;;;;;4.95;3.50;;;;;;;-7.87;91.86;100033.31;4847967;28;20043;-79
2022/12/29 09:04:19;;;;;;;9.75;2.97;;;;;;;-8.02;90.46;100028.31;4918070;28;20044;-76
2022/12/29 09:06:52;;;;;;;8.57;3.72;;;;;;;-7.98;89.72;100054.72;4924393;28;20066;-77
2022/12/29 09:12:13;;;;;;;5.20;3.10;;;;;;;-8.10;88.83;100056.56;4918508;28;20087;-79
2022/12/29 09:14:45;;;;;;;7.75;4.07;;;;;;;-8.10;88.94;100061.66;4928291;28;20063;-80
2022/12/29 09:20:07;;;;;;;3.60;2.55;;;;;;;-8.21;90.07;100080.44;4922208;28;20036;-80
2022/12/29 09:22:38;;;;;;;7.13;2.72;;;;;;;-8.29;90.83;100088.50;4934036;28;20355;-81
2022/12/29 09:25:12;;;;;;;5.40;2.92;;;;;;;-8.30;91.28;100085.91;4920238;28;20087;-81
2022/12/29 09:30:37;;;;;;;3.58;2.08;;;;;;;-8.36;90.89;100101.66;4928417;28;20039;-81
2022/12/29 09:33:10;;;;;;;3.83;2.50;;;;;;;-8.42;89.82;100098.78;4922115;28;20111;-82
2022/12/29 09:35:44;;;;;;;6.10;2.20;;;;;;;-8.46;90.21;100104.47;4931416;28;20048;-81
2022/12/29 09:38:17;;;;;;;4.05;2.10;;;;;;;-8.48;89.70;100100.97;4927602;28;20103;-83
2022/12/29 09:40:51;;;;;;;4.40;2.85;;;;;;;-8.40;89.57;100120.03;4935494;28;20282;-81
2022/12/29 09:43:50;;;;;;;4.85;2.88;;;;;;;-8.74;89.44;100062.34;4916567;28;20071;-80
2022/12/29 09:46:27;;;;;;;4.00;2.30;;;;;;;-8.78;89.02;100083.25;4909194;28;20045;-80
2022/12/29 09:49:09;;;;;;;4.30;2.70;;;;;;;-8.60;89.18;100125.63;4931176;28;20040;-81
2022/12/29 09:51:42;;;;;;;2.85;2.47;;;;;;;-8.63;88.99;100140.66;4924651;28;20154;-80
2022/12/29 09:54:32;;;;;;;4.50;2.92;;;;;;;-8.68;88.67;100153.91;4933326;28;20044;-81
2022/12/29 09:57:03;;;;;;;7.43;3.35;;;;;;;-8.74;88.91;100128.19;4899497;28;20047;-80
2022/12/29 09:59:41;;;;;;;3.97;2.70;;;;;;;-8.69;88.65;100147.06;4939806;28;20040;-81
2022/12/29 10:02:30;;;;;;;4.15;3.05;;;;;;;-8.78;88.15;100146.56;4913287;28;20279;-81
2022/12/29 10:05:02;;;;;;;6.93;2.70;;;;;;;-8.71;88.42;100148.66;4905370;28;20053;-82
2022/12/29 10:07:56;;;;;;;6.10;3.20;;;;;;;-9.61;88.13;100020.19;4913961;28;20036;-81
2022/12/29 10:10:49;;;;;;;4.65;2.97;;;;;;;-9.02;87.83;100099.53;4911588;28;20041;-82
2022/12/29 10:13:32;;;;;;;5.28;2.60;;;;;;;-8.74;87.88;100151.00;4907469;28;20439;-79
2022/12/29 10:16:16;;;;;;;7.32;2.63;;;;;;;-8.80;87.19;100152.31;4908100;28;20079;-80
2022/12/29 10:19:21;;;;;;;4.32;2.30;;;;;;;-8.79;87.24;100170.13;4901278;28;20064;-80
2022/12/29 10:22:14;;;;;;;5.97;3.22;;;;;;;-8.86;86.60;100168.03;4925987;28;20328;-81
2022/12/29 10:24:51;;;;;;;6.30;2.78;;;;;;;-9.64;86.27;100059.59;4924138;28;20056;-81
2022/12/29 10:27:27;;;;;;;5.50;2.67;;;;;;;-8.98;85.03;100182.50;4922758;28;20107;-81
2022/12/29 10:30:00;;;;;;;4.75;2.78;;;;;;;-9.00;85.01;100184.06;4930837;28;20041;-81
2022/12/29 10:32:39;;;;;;;5.20;2.45;;;;;;;-9.03;84.59;100178.81;4925337;28;20049;-81
2022/12/29 10:35:21;;;;;;;7.55;2.53;;;;;;;-9.19;84.45;100182.91;4922610;28;20059;-80
2022/12/29 10:38:00;;;;;;;4.97;2.65;;;;;;;-9.10;84.20;100202.88;4918548;28;20115;-81
2022/12/29 10:40:43;;;;;;;3.47;2.25;;;;;;;-9.12;84.21;100195.16;4931906;28;20281;-80
2022/12/29 10:43:28;;;;;;;4.32;2.60;;;;;;;-9.29;83.57;100180.63;4918480;28;20116;-80
2022/12/29 10:46:03;;;;;;;3.47;2.28;;;;;;;-9.41;83.57;100169.75;4915576;28;20044;-80
2022/12/29 10:48:38;;;;;;;4.38;2.58;;;;;;;-9.23;83.70;100191.13;4918290;28;20340;-79
2022/12/29 10:51:21;;;;;;;5.05;2.90;;;;;;;-9.22;83.60;100203.00;4904791;28;20038;-80
2022/12/29 10:54:00;;;;;;;3.78;2.30;;;;;;;-9.22;83.56;100208.03;4924001;28;20132;-82
2022/12/29 10:56:39;;;;;;;4.22;2.40;;;;;;;-9.24;83.34;100207.06;4925675;28;20053;-81
2022/12/29 10:59:24;;;;;;;6.43;2.55;;;;;;;-9.31;82.97;100202.41;4927833;28;20058;-80
2022/12/29 11:02:03;;;;;;;8.13;2.63;;;;;;;-9.36;82.70;100209.75;4935317;28;20516;-81
2022/12/29 11:04:52;;;;;;;9.27;2.65;;;;;;;-9.85;82.75;100142.59;4920717;28;20056;-81
2022/12/29 11:07:25;;;;;;;3.25;2.35;;;;;;;-9.51;82.46;100218.03;4907145;28;20047;-81
2022/12/29 11:10:20;;;;;;;4.95;2.30;;;;;;;-9.84;82.18;100188.16;4925287;28;20043;-81
2022/12/29 11:13:13;;;;;;;6.10;2.40;;;;;;;-9.67;82.13;100212.00;4908407;28;20057;-81
2022/12/29 11:15:46;;;;;;;4.45;2.85;;;;;;;-10.10;81.80;100163.78;4908498;28;20560;-80
2022/12/29 11:18:24;;;;;;;5.53;2.50;;;;;;;-9.79;81.70;100212.09;4929392;28;20048;-80
2022/12/29 11:21:00;;;;;;;5.03;2.45;;;;;;;-9.77;81.32;100214.72;4914572;28;20071;-81
2022/12/29 11:23:35;;;;;;;3.17;2.33;;;;;;;-9.80;81.25;100214.53;4925796;28;20130;-81
2022/12/29 11:26:15;;;;;;;5.97;2.63;;;;;;;-10.51;80.53;100129.16;4923125;28;20329;-81
2022/12/29 11:28:51;;;;;;;4.97;2.70;;;;;;;-10.02;80.80;100223.28;4920732;28;20115;-81
2022/12/29 11:31:24;;;;;;;3.38;2.50;;;;;;;-9.99;81.04;100231.03;4925706;28;20466;-80
2022/12/29 11:33:56;;;;;;;6.35;2.65;;;;;;;-10.14;80.76;100202.25;4918276;28;20040;-80
2022/12/29 11:36:29;;;;;;;12.63;2.90;;;;;;;-10.14;81.10;100212.38;4932290;28;20150;-81
2022/12/29 11:39:00;;;;;;;6.65;2.70;;;;;;;-10.19;80.94;100218.78;4932856;28;22523;-81
2022/12/29 11:41:35;;;;;;;6.13;2.45;;;;;;;-10.26;80.98;100216.63;4923299;28;20494;-81
2022/12/29 11:44:15;;;;;;;5.47;2.60;;;;;;;-10.25;80.95;100233.53;4931643;28;20253;-80
2022/12/29 11:46:53;;;;;;;3.97;2.70;;;;;;;-10.32;81.41;100221.31;4938329;28;20048;-82
2022/12/29 11:49:30;;;;;;;8.40;2.53;;;;;;;-10.29;80.94;100236.66;4922129;28;20056;-81
2022/12/29 11:52:03;;;;;;;5.88;2.85;;;;;;;-10.33;80.56;100234.69;4923585;28;20050;-82
2022/12/29 11:54:38;;;;;;;5.40;3.03;;;;;;;-10.62;80.23;100200.84;4935040;28;20048;-83
2022/12/29 11:57:16;;;;;;;3.45;2.65;;;;;;;-10.46;80.02;100238.06;4939737;28;20344;-83
2022/12/29 11:59:55;;;;;;;4.72;2.80;;;;;;;-10.72;79.98;100218.66;4930342;28;20360;-82
2022/12/29 12:02:43;;;;;;;3.90;2.70;;;;;;;-10.64;80.48;100231.00;4933904;28;20055;-85
2022/12/29 12:05:23;;;;;;;5.63;2.83;;;;;;;-10.71;80.86;100230.50;4917471;28;20091;-84
2022/12/29 12:08:09;;;;;;;2.90;2.17;;;;;;;-10.68;81.13;100241.72;4933242;27;20040;-85
2022/12/29 12:10:52;;;;;;;5.43;2.90;;;;;;;-10.65;81.14;100236.84;4946044;28;20070;-86
2022/12/29 12:13:28;;;;;;;6.53;2.83;;;;;;;-10.56;81.43;100246.69;4919836;27;20279;-84
2022/12/29 12:16:07;;;;;;;4.00;2.90;;;;;;;-10.50;81.14;100252.16;4943562;28;20040;-85
2022/12/29 12:18:46;;;;;;;7.50;2.80;;;;;;;-10.48;81.51;100240.50;4929565;28;20040;-85
2022/12/29 12:21:27;;;;;;;5.05;2.75;;;;;;;-10.39;81.85;100244.41;4910195;28;20142;-88
2022/12/29 12:24:18;;;;;;;9.43;2.65;;;;;;;-11.02;81.83;100117.41;4926704;28;20036;-88
2022/12/29 12:27:04;;;;;;;6.10;2.85;;;;;;;-10.45;82.08;100217.97;4907956;28;20279;-87
2022/12/29 12:29:42;;;;;;;4.60;2.47;;;;;;;-9.92;81.67;100266.84;4899340;28;20387;-88
2022/12/29 12:32:19;;;;;;;4.93;2.50;;;;;;;-10.20;81.17;100227.13;4898378;28;20059;-87
2022/12/29 12:34:52;;;;;;;3.88;2.83;;;;;;;-10.20;80.61;100247.34;4903729;28;20057;-86
2022/12/29 12:37:54;;;;;;;5.25;2.67;;;;;;;-10.36;80.60;100239.56;4904773;28;20064;-85
2022/12/29 12:41:00;;;;;;;4.65;2.35;;;;;;;-10.18;81.25;100271.09;4897601;28;20084;-88
2022/12/29 12:43:42;;;;;;;32.45;9.43;;;;;;;-10.13;81.18;100269.72;4904065;28;20088;-87
2022/12/29 12:46:54;;;;;;;28.13;8.95;;;;;;;-10.14;81.33;100273.00;4895378;28;20100;-87
2022/12/29 12:50:02;;;;;;;18.45;6.05;;;;;;;-10.12;81.41;100271.47;4875006;28;20062;-85
2022/12/29 12:52:55;;;;;;;7.28;3.40;;;;;;;-10.11;81.47;100267.28;4901564;28;20052;-89
2022/12/29 12:55:44;;;;;;;5.75;2.80;;;;;;;-10.13;81.04;100284.91;4911764;28;20367;-85
2022/12/29 12:58:24;;;;;;;5.28;2.80;;;;;;;-10.28;81.37;100257.00;4891236;28;20041;-82
2022/12/29 13:01:08;;;;;;;3.92;2.78;;;;;;;-10.31;80.89;100278.63;4894812;28;20107;-83
2022/12/29 13:03:59;;;;;;;5.35;2.55;;;;;;;-10.44;81.07;100262.66;4900248;28;20241;-83
2022/12/29 13:06:43;;;;;;;4.70;2.70;;;;;;;-11.14;81.04;100141.81;4901859;28;20046;-83
2022/12/29 13:09:48;;;;;;;7.60;3.53;;;;;;;-10.42;81.08;100276.28;4901152;28;20102;-83
2022/12/29 13:12:32;;;;;;;17.02;6.80;;;;;;;-10.38;80.92;100291.63;4911432;28;20068;-82
2022/12/29 13:15:16;;;;;;;8.95;6.25;;;;;;;-10.50;80.17;100296.75;4885302;28;20064;-82
2022/12/29 13:17:56;;;;;;;14.73;8.40;;;;;;;-10.67;80.97;100285.50;4895541;28;20136;-83
2022/12/29 13:20:35;;;;;;;13.30;7.43;;;;;;;-10.73;80.97;100282.53;4897823;28;20116;-85
2022/12/29 13:23:22;;;;;;;9.65;5.65;;;;;;;-11.04;79.84;100290.53;4891484;28;20132;-85
2022/12/29 13:26:06;;;;;;;13.95;4.95;;;;;;;-11.18;79.62;100306.34;4881708;28;20053;-83
2022/12/29 13:28:46;;;;;;;8.80;3.60;;;;;;;-11.15;80.33;100311.63;4891668;28;20056;-83
2022/12/29 13:31:31;;;;;;;5.88;3.92;;;;;;;-11.18;80.68;100311.38;4890766;28;20043;-85
2022/12/29 13:34:19;;;;;;;6.85;3.83;;;;;;;-11.42;79.90;100285.31;4883262;28;20065;-84
2022/12/29 13:36:57;;;;;;;5.10;3.67;;;;;;;-11.44;79.60;100305.38;4888098;28;20377;-82
2022/12/29 13:39:34;;;;;;;10.15;4.10;;;;;;;-11.48;79.71;100315.13;4902999;28;20048;-83
2022/12/29 13:42:10;;;;;;;9.35;4.40;;;;;;;-11.48;79.82;100321.06;4888117;28;20515;-83
2022/12/29 13:44:45;;;;;;;16.77;6.53;;;;;;;-11.67;79.51;100313.81;4881399;28;20057;-83
2022/12/29 13:47:31;;;;;;;24.60;8.02;;;;;;;-11.88;78.44;100323.25;4898987;28;20373;-83
2022/12/29 13:50:17;;;;;;;18.90;8.88;;;;;;;-13.13;76.83;100182.22;4881861;28;20233;-84
2022/12/29 13:53:04;;;;;;;17.13;6.32;;;;;;;-12.68;77.47;100291.22;4882520;28;20050;-82
2022/12/29 13:55:42;;;;;;;5.88;3.75;;;;;;;-12.62;76.82;100335.38;4888416;28;20052;-84
2022/12/29 13:58:23;;;;;;;9.35;3.60;;;;;;;-13.15;76.95;100274.28;4877529;28;20045;-82
2022/12/29 14:01:00;;;;;;;7.82;3.90;;;;;;;-13.64;76.80;100257.03;4877633;28;20041;-83
2022/12/29 14:03:53;;;;;;;4.53;2.88;;;;;;;-13.68;77.90;100296.09;4881271;28;20051;-83
2022/12/29 14:06:26;;;;;;;7.25;2.70;;;;;;;-13.51;78.30;100336.00;4876953;28;20041;-83
2022/12/29 14:09:00;;;;;;;8.48;3.40;;;;;;;-13.77;78.99;100320.50;4887378;28;20300;-83
2022/12/29 14:11:35;;;;;;;7.35;3.33;;;;;;;-13.87;80.00;100328.06;4883038;28;20059;-83
2022/12/29 14:14:15;;;;;;;10.93;4.10;;;;;;;-13.89;81.16;100310.34;4886642;28;20041;-84
2022/12/29 14:16:49;;;;;;;13.27;5.70;;;;;;;-13.54;81.45;100340.78;4876763;28;20050;-83
2022/12/29 14:19:25;;;;;;;12.23;5.70;;;;;;;-13.41;81.76;100336.75;4886762;28;20121;-83
2022/12/29 14:21:59;;;;;;;5.28;3.45;;;;;;;-13.31;83.48;100349.28;4871273;28;20105;-83
2022/12/29 14:24:47;;;;;;;6.20;3.22;;;;;;;-13.21;83.44;100331.63;4886019;28;20054;-82
2022/12/29 14:30:59;;;;;;;11.90;6.22;;;;;;;-13.10;83.45;100329.97;4842005;28;20136;-85
2022/12/29 14:33:32;;;;;;;19.08;10.50;;;;;;;-13.05;83.53;100334.59;4910023;28;20041;-84
2022/12/29 14:36:26;;;;;;;80.32;25.17;;;;;;;-12.93;83.60;100333.75;4888109;28;20237;-82
2022/12/29 14:38:57;;;;;;;144.70;35.08;;;;;;;-12.85;83.69;100338.66;4881039;28;20242;-82
2022/12/29 14:41:32;;;;;;;80.40;23.98;;;;;;;-12.82;83.72;100333.84;4893018;28;20057;-82
2022/12/29 14:44:12;;;;;;;50.75;16.35;;;;;;;-12.68;84.11;100345.00;4889762;28;20053;-82
2022/12/29 14:46:56;;;;;;;36.20;11.10;;;;;;;-12.57;84.03;100344.94;4881859;28;20061;-82
2022/12/29 14:49:33;;;;;;;11.93;5.97;;;;;;;-12.65;84.29;100319.19;4881733;28;20053;-82
2022/12/29 14:52:17;;;;;;;19.75;7.53;;;;;;;-12.39;84.24;100341.28;4881675;28;20049;-84
2022/12/29 14:54:53;;;;;;;16.67;7.85;;;;;;;-12.28;84.37;100334.50;4882187;28;20124;-83
2022/12/29 14:57:40;;;;;;;14.85;3.65;;;;;;;-12.20;84.37;100339.38;4881536;28;20049;-83
2022/12/29 15:00:20;;;;;;;5.15;3.78;;;;;;;-12.14;84.61;100328.00;4877617;28;20057;-82